RJDM weather

Metabaru Air Base
Saga Prefecture, Japan

Public forecast

Using degrees Celsius for public forecast. Weather courtesy of forecast.io.

Current aviation weather report (METAR) for Metabaru Air Base

Report is more than 6 hours old.

Retrieved 2019/10/17 02:21 UTC (9 hours ago):

RJDM 170221Z 06004KT 9999 -RA FEW035 SCT050 BKN120 18/14 Q1021 RMK 1CU035 4SC050 5AC120 A3016

Closest aviation forecast (TAF) to Metabaru Air Base

Closest forecast is Saga Airport, 11.9 nm (22.1 km) SSW. Retrieved 2019/10/17 06:30 UTC (5 hours ago):

TAF TAF RJFS 170508Z 1706/1812 03008KT 9000 -RA FEW010 BKN040 TEMPO 1706/1709 4000 RA BR TEMPO 1715/1718 4000 -SHRA BR TEMPO 1718/1803 3000 SHRA BR TEMPO 1806/1812 3000 SHRA BR